sensor_id;sensor_type;location;lat;lon;timestamp;temperature;humidity
73576;DHT22;61859;49.204;8.140;2023-01-08T00:02:13;9.10;91.70
73576;DHT22;61859;49.204;8.140;2023-01-08T00:04:38;9.00;92.30
73576;DHT22;61859;49.204;8.140;2023-01-08T00:07:04;8.90;92.50
73576;DHT22;61859;49.204;8.140;2023-01-08T00:09:30;8.80;92.40
73576;DHT22;61859;49.204;8.140;2023-01-08T00:11:55;8.80;92.90
73576;DHT22;61859;49.204;8.140;2023-01-08T00:14:21;8.70;93.30
73576;DHT22;61859;49.204;8.140;2023-01-08T00:16:46;8.60;93.40
73576;DHT22;61859;49.204;8.140;2023-01-08T00:19:12;8.70;93.40
73576;DHT22;61859;49.204;8.140;2023-01-08T00:21:38;8.70;93.60
73576;DHT22;61859;49.204;8.140;2023-01-08T00:24:04;8.70;93.60
73576;DHT22;61859;49.204;8.140;2023-01-08T00:26:29;8.70;93.70
73576;DHT22;61859;49.204;8.140;2023-01-08T00:28:55;8.70;93.40
73576;DHT22;61859;49.204;8.140;2023-01-08T00:31:21;8.70;93.30
73576;DHT22;61859;49.204;8.140;2023-01-08T00:33:46;8.70;93.10
73576;DHT22;61859;49.204;8.140;2023-01-08T00:36:14;8.70;93.00
73576;DHT22;61859;49.204;8.140;2023-01-08T00:38:40;8.70;92.30
73576;DHT22;61859;49.204;8.140;2023-01-08T00:41:06;8.70;92.20
73576;DHT22;61859;49.204;8.140;2023-01-08T00:43:31;8.70;92.50
73576;DHT22;61859;49.204;8.140;2023-01-08T00:45:57;8.70;92.30
73576;DHT22;61859;49.204;8.140;2023-01-08T00:48:23;8.80;92.20
73576;DHT22;61859;49.204;8.140;2023-01-08T00:50:50;8.80;91.90
73576;DHT22;61859;49.204;8.140;2023-01-08T00:53:17;8.80;92.00
73576;DHT22;61859;49.204;8.140;2023-01-08T00:55:43;8.80;92.00
73576;DHT22;61859;49.204;8.140;2023-01-08T00:58:09;8.80;92.20
73576;DHT22;61859;49.204;8.140;2023-01-08T01:00:35;8.80;92.00
73576;DHT22;61859;49.204;8.140;2023-01-08T01:03:00;8.90;92.00
73576;DHT22;61859;49.204;8.140;2023-01-08T01:05:26;8.80;92.30
73576;DHT22;61859;49.204;8.140;2023-01-08T01:07:51;8.80;92.20
73576;DHT22;61859;49.204;8.140;2023-01-08T01:10:17;8.90;92.00
73576;DHT22;61859;49.204;8.140;2023-01-08T01:12:43;8.80;92.20
73576;DHT22;61859;49.204;8.140;2023-01-08T01:15:11;8.80;92.70
73576;DHT22;61859;49.204;8.140;2023-01-08T01:17:39;8.70;92.90
73576;DHT22;61859;49.204;8.140;2023-01-08T01:20:08;8.70;93.10
73576;DHT22;61859;49.204;8.140;2023-01-08T01:22:34;8.70;93.70
73576;DHT22;61859;49.204;8.140;2023-01-08T01:24:59;8.70;94.10
73576;DHT22;61859;49.204;8.140;2023-01-08T01:27:25;8.60;94.30
73576;DHT22;61859;49.204;8.140;2023-01-08T01:29:52;8.60;94.50
73576;DHT22;61859;49.204;8.140;2023-01-08T01:32:17;8.50;94.90
73576;DHT22;61859;49.204;8.140;2023-01-08T01:34:43;8.40;95.70
73576;DHT22;61859;49.204;8.140;2023-01-08T01:37:11;8.40;96.60
73576;DHT22;61859;49.204;8.140;2023-01-08T01:39:37;8.30;97.20
73576;DHT22;61859;49.204;8.140;2023-01-08T01:42:03;8.20;97.60
73576;DHT22;61859;49.204;8.140;2023-01-08T01:44:43;8.10;97.90
73576;DHT22;61859;49.204;8.140;2023-01-08T01:47:35;8.10;98.40
73576;DHT22;61859;49.204;8.140;2023-01-08T01:50:04;8.10;98.70
73576;DHT22;61859;49.204;8.140;2023-01-08T01:52:35;8.10;99.10
73576;DHT22;61859;49.204;8.140;2023-01-08T01:55:02;8.00;99.10
73576;DHT22;61859;49.204;8.140;2023-01-08T01:57:30;8.00;99.20
73576;DHT22;61859;49.204;8.140;2023-01-08T01:59:57;8.10;99.50
73576;DHT22;61859;49.204;8.140;2023-01-08T02:02:23;8.10;99.20
73576;DHT22;61859;49.204;8.140;2023-01-08T02:04:49;8.10;99.20
73576;DHT22;61859;49.204;8.140;2023-01-08T02:12:59;8.10;99.30
73576;DHT22;61859;49.204;8.140;2023-01-08T02:15:37;8.10;99.30
73576;DHT22;61859;49.204;8.140;2023-01-08T02:18:35;8.00;99.40
73576;DHT22;61859;49.204;8.140;2023-01-08T02:21:10;8.10;99.50
73576;DHT22;61859;49.204;8.140;2023-01-08T02:23:41;8.10;99.30
73576;DHT22;61859;49.204;8.140;2023-01-08T02:26:23;8.10;99.90
73576;DHT22;61859;49.204;8.140;2023-01-08T02:29:02;8.20;99.80
73576;DHT22;61859;49.204;8.140;2023-01-08T02:31:30;8.20;99.90
73576;DHT22;61859;49.204;8.140;2023-01-08T02:33:59;8.20;99.90
73576;DHT22;61859;49.204;8.140;2023-01-08T02:39:03;8.30;99.90
73576;DHT22;61859;49.204;8.140;2023-01-08T02:41:50;8.10;99.90
73576;DHT22;61859;49.204;8.140;2023-01-08T02:44:40;8.20;99.90
73576;DHT22;61859;49.204;8.140;2023-01-08T02:47:23;8.10;99.90
73576;DHT22;61859;49.204;8.140;2023-01-08T02:49:55;8.10;99.90
73576;DHT22;61859;49.204;8.140;2023-01-08T02:52:26;8.10;99.90
73576;DHT22;61859;49.204;8.140;2023-01-08T02:54:54;8.10;99.90
73576;DHT22;61859;49.204;8.140;2023-01-08T02:57:21;8.00;99.90
73576;DHT22;61859;49.204;8.140;2023-01-08T02:59:49;8.10;99.90
73576;DHT22;61859;49.204;8.140;2023-01-08T03:02:15;8.10;99.90
73576;DHT22;61859;49.204;8.140;2023-01-08T03:04:50;7.90;99.90
73576;DHT22;61859;49.204;8.140;2023-01-08T03:07:17;8.10;99.90
73576;DHT22;61859;49.204;8.140;2023-01-08T03:09:42;8.10;99.90
73576;DHT22;61859;49.204;8.140;2023-01-08T03:12:18;8.10;99.90
73576;DHT22;61859;49.204;8.140;2023-01-08T03:14:59;8.10;99.90
73576;DHT22;61859;49.204;8.140;2023-01-08T03:17:38;8.10;99.90
73576;DHT22;61859;49.204;8.140;2023-01-08T03:20:24;8.20;99.90
73576;DHT22;61859;49.204;8.140;2023-01-08T03:22:53;8.20;99.90
73576;DHT22;61859;49.204;8.140;2023-01-08T03:25:21;8.20;99.90
73576;DHT22;61859;49.204;8.140;2023-01-08T03:27:52;8.20;99.90
73576;DHT22;61859;49.204;8.140;2023-01-08T03:30:20;8.20;99.90
73576;DHT22;61859;49.204;8.140;2023-01-08T03:32:47;8.20;99.90
73576;DHT22;61859;49.204;8.140;2023-01-08T03:35:18;8.20;99.90
73576;DHT22;61859;49.204;8.140;2023-01-08T03:37:48;8.20;99.90
73576;DHT22;61859;49.204;8.140;2023-01-08T03:40:19;8.20;99.90
73576;DHT22;61859;49.204;8.140;2023-01-08T03:42:45;8.20;99.90
73576;DHT22;61859;49.204;8.140;2023-01-08T03:45:11;8.20;99.90
73576;DHT22;61859;49.204;8.140;2023-01-08T03:47:38;8.20;99.90
73576;DHT22;61859;49.204;8.140;2023-01-08T03:50:09;8.20;99.90
73576;DHT22;61859;49.204;8.140;2023-01-08T03:52:35;8.20;99.90
73576;DHT22;61859;49.204;8.140;2023-01-08T03:55:01;8.20;99.90
73576;DHT22;61859;49.204;8.140;2023-01-08T03:57:26;8.10;99.90
73576;DHT22;61859;49.204;8.140;2023-01-08T03:59:52;8.20;99.90
73576;DHT22;61859;49.204;8.140;2023-01-08T04:02:17;8.30;99.90
73576;DHT22;61859;49.204;8.140;2023-01-08T04:04:43;8.20;99.90
73576;DHT22;61859;49.204;8.140;2023-01-08T04:07:10;8.20;99.90
73576;DHT22;61859;49.204;8.140;2023-01-08T04:09:36;8.30;99.90
73576;DHT22;61859;49.204;8.140;2023-01-08T04:12:02;8.20;99.90
73576;DHT22;61859;49.204;8.140;2023-01-08T04:14:27;8.20;99.90
73576;DHT22;61859;49.204;8.140;2023-01-08T04:16:53;8.20;99.90
73576;DHT22;61859;49.204;8.140;2023-01-08T04:19:18;8.10;99.90
73576;DHT22;61859;49.204;8.140;2023-01-08T04:21:44;8.10;99.90
73576;DHT22;61859;49.204;8.140;2023-01-08T04:24:11;8.10;99.90
73576;DHT22;61859;49.204;8.140;2023-01-08T04:26:37;8.10;99.90
73576;DHT22;61859;49.204;8.140;2023-01-08T04:29:02;8.10;99.90
73576;DHT22;61859;49.204;8.140;2023-01-08T04:31:28;8.00;99.90
73576;DHT22;61859;49.204;8.140;2023-01-08T04:33:54;8.00;99.90
73576;DHT22;61859;49.204;8.140;2023-01-08T04:36:20;8.10;99.90
73576;DHT22;61859;49.204;8.140;2023-01-08T04:38:45;8.20;99.90
73576;DHT22;61859;49.204;8.140;2023-01-08T04:41:11;8.30;99.90
73576;DHT22;61859;49.204;8.140;2023-01-08T04:43:36;8.20;99.90
73576;DHT22;61859;49.204;8.140;2023-01-08T04:46:03;8.30;99.90
73576;DHT22;61859;49.204;8.140;2023-01-08T04:48:29;8.30;99.90
73576;DHT22;61859;49.204;8.140;2023-01-08T04:50:57;8.20;99.90
73576;DHT22;61859;49.204;8.140;2023-01-08T04:53:23;8.20;99.90
73576;DHT22;61859;49.204;8.140;2023-01-08T04:55:48;8.20;99.90
73576;DHT22;61859;49.204;8.140;2023-01-08T04:58:14;8.10;99.90
73576;DHT22;61859;49.204;8.140;2023-01-08T05:00:40;8.10;99.90
73576;DHT22;61859;49.204;8.140;2023-01-08T05:03:05;8.10;99.90
73576;DHT22;61859;49.204;8.140;2023-01-08T05:05:32;8.10;99.90
73576;DHT22;61859;49.204;8.140;2023-01-08T05:07:58;8.00;99.90
73576;DHT22;61859;49.204;8.140;2023-01-08T05:10:24;8.00;99.90
73576;DHT22;61859;49.204;8.140;2023-01-08T05:12:49;8.00;99.90
73576;DHT22;61859;49.204;8.140;2023-01-08T05:15:15;8.00;99.90
73576;DHT22;61859;49.204;8.140;2023-01-08T05:17:40;7.90;99.90
73576;DHT22;61859;49.204;8.140;2023-01-08T05:20:06;7.90;99.90
73576;DHT22;61859;49.204;8.140;2023-01-08T05:22:33;7.90;99.90
73576;DHT22;61859;49.204;8.140;2023-01-08T05:24:58;7.90;99.90
73576;DHT22;61859;49.204;8.140;2023-01-08T05:27:24;7.80;99.90
73576;DHT22;61859;49.204;8.140;2023-01-08T05:29:49;8.00;99.90
73576;DHT22;61859;49.204;8.140;2023-01-08T05:32:17;7.90;99.90
73576;DHT22;61859;49.204;8.140;2023-01-08T05:34:43;7.90;99.90
73576;DHT22;61859;49.204;8.140;2023-01-08T05:37:09;7.90;99.90
73576;DHT22;61859;49.204;8.140;2023-01-08T05:39:35;7.80;99.90
73576;DHT22;61859;49.204;8.140;2023-01-08T05:42:01;7.70;99.90
73576;DHT22;61859;49.204;8.140;2023-01-08T05:44:26;7.80;99.90
73576;DHT22;61859;49.204;8.140;2023-01-08T05:46:52;7.80;99.90
73576;DHT22;61859;49.204;8.140;2023-01-08T05:49:18;7.70;99.90
73576;DHT22;61859;49.204;8.140;2023-01-08T05:51:46;7.60;99.90
73576;DHT22;61859;49.204;8.140;2023-01-08T05:54:11;7.70;99.90
73576;DHT22;61859;49.204;8.140;2023-01-08T05:56:38;7.70;99.90
73576;DHT22;61859;49.204;8.140;2023-01-08T05:59:03;7.50;99.90
73576;DHT22;61859;49.204;8.140;2023-01-08T06:01:29;7.60;99.90
73576;DHT22;61859;49.204;8.140;2023-01-08T06:03:55;7.60;99.90
73576;DHT22;61859;49.204;8.140;2023-01-08T06:06:20;7.50;99.90
73576;DHT22;61859;49.204;8.140;2023-01-08T06:08:46;7.60;99.90
73576;DHT22;61859;49.204;8.140;2023-01-08T06:11:12;7.60;99.90
73576;DHT22;61859;49.204;8.140;2023-01-08T06:13:41;7.50;99.90
73576;DHT22;61859;49.204;8.140;2023-01-08T06:16:07;7.50;99.90
73576;DHT22;61859;49.204;8.140;2023-01-08T06:18:32;7.50;99.90
73576;DHT22;61859;49.204;8.140;2023-01-08T06:20:58;7.50;99.90
73576;DHT22;61859;49.204;8.140;2023-01-08T06:23:24;7.50;99.90
73576;DHT22;61859;49.204;8.140;2023-01-08T06:25:54;7.60;99.90
73576;DHT22;61859;49.204;8.140;2023-01-08T06:28:20;7.70;99.90
73576;DHT22;61859;49.204;8.140;2023-01-08T06:30:46;7.60;99.90
73576;DHT22;61859;49.204;8.140;2023-01-08T06:33:12;7.60;99.90
73576;DHT22;61859;49.204;8.140;2023-01-08T06:35:37;7.60;99.90
73576;DHT22;61859;49.204;8.140;2023-01-08T06:38:03;7.60;99.90
73576;DHT22;61859;49.204;8.140;2023-01-08T06:40:28;7.60;99.90
73576;DHT22;61859;49.204;8.140;2023-01-08T06:42:54;7.70;99.90
73576;DHT22;61859;49.204;8.140;2023-01-08T06:45:19;7.50;99.90
73576;DHT22;61859;49.204;8.140;2023-01-08T06:47:45;7.60;99.90
73576;DHT22;61859;49.204;8.140;2023-01-08T06:50:11;7.70;99.90
73576;DHT22;61859;49.204;8.140;2023-01-08T06:52:37;7.60;99.90
73576;DHT22;61859;49.204;8.140;2023-01-08T06:55:03;7.60;99.90
73576;DHT22;61859;49.204;8.140;2023-01-08T06:57:30;7.60;99.90
73576;DHT22;61859;49.204;8.140;2023-01-08T06:59:56;7.60;99.90
73576;DHT22;61859;49.204;8.140;2023-01-08T07:02:21;7.70;99.90
73576;DHT22;61859;49.204;8.140;2023-01-08T07:04:47;7.50;99.90
73576;DHT22;61859;49.204;8.140;2023-01-08T07:07:13;7.60;99.90
73576;DHT22;61859;49.204;8.140;2023-01-08T07:09:42;7.60;99.90
73576;DHT22;61859;49.204;8.140;2023-01-08T07:12:13;7.70;99.90
73576;DHT22;61859;49.204;8.140;2023-01-08T07:14:40;7.60;99.90
73576;DHT22;61859;49.204;8.140;2023-01-08T07:17:05;7.60;99.90
73576;DHT22;61859;49.204;8.140;2023-01-08T07:19:31;7.60;99.90
73576;DHT22;61859;49.204;8.140;2023-01-08T07:21:57;7.70;99.90
73576;DHT22;61859;49.204;8.140;2023-01-08T07:24:22;7.70;99.90
73576;DHT22;61859;49.204;8.140;2023-01-08T07:26:48;7.70;99.90
73576;DHT22;61859;49.204;8.140;2023-01-08T07:29:13;7.60;99.90
73576;DHT22;61859;49.204;8.140;2023-01-08T07:31:39;7.70;99.90
73576;DHT22;61859;49.204;8.140;2023-01-08T07:34:05;7.60;99.90
73576;DHT22;61859;49.204;8.140;2023-01-08T07:36:30;7.60;99.90
73576;DHT22;61859;49.204;8.140;2023-01-08T07:38:56;7.70;99.90
73576;DHT22;61859;49.204;8.140;2023-01-08T07:41:21;7.70;99.90
73576;DHT22;61859;49.204;8.140;2023-01-08T07:43:47;7.70;99.90
73576;DHT22;61859;49.204;8.140;2023-01-08T07:46:13;7.60;99.90
73576;DHT22;61859;49.204;8.140;2023-01-08T07:48:39;7.60;99.90
73576;DHT22;61859;49.204;8.140;2023-01-08T07:51:06;7.70;99.90
73576;DHT22;61859;49.204;8.140;2023-01-08T07:53:32;7.80;99.90
73576;DHT22;61859;49.204;8.140;2023-01-08T07:56:02;7.70;99.90
73576;DHT22;61859;49.204;8.140;2023-01-08T07:58:29;7.70;99.90
73576;DHT22;61859;49.204;8.140;2023-01-08T08:00:55;7.80;99.90
73576;DHT22;61859;49.204;8.140;2023-01-08T08:03:20;7.70;99.90
73576;DHT22;61859;49.204;8.140;2023-01-08T08:05:46;7.70;99.90
73576;DHT22;61859;49.204;8.140;2023-01-08T08:08:12;7.80;99.90
73576;DHT22;61859;49.204;8.140;2023-01-08T08:10:38;7.90;99.90
73576;DHT22;61859;49.204;8.140;2023-01-08T08:13:05;7.80;99.90
73576;DHT22;61859;49.204;8.140;2023-01-08T08:15:31;7.90;99.90
73576;DHT22;61859;49.204;8.140;2023-01-08T08:17:57;7.80;99.90
73576;DHT22;61859;49.204;8.140;2023-01-08T08:20:22;8.00;99.90
73576;DHT22;61859;49.204;8.140;2023-01-08T08:22:48;8.10;99.90
73576;DHT22;61859;49.204;8.140;2023-01-08T08:25:13;8.00;99.90
73576;DHT22;61859;49.204;8.140;2023-01-08T08:27:40;8.00;99.90
73576;DHT22;61859;49.204;8.140;2023-01-08T08:30:06;8.10;99.90
73576;DHT22;61859;49.204;8.140;2023-01-08T08:32:32;8.00;99.90
73576;DHT22;61859;49.204;8.140;2023-01-08T08:34:58;8.00;99.90
73576;DHT22;61859;49.204;8.140;2023-01-08T08:37:24;8.10;99.90
73576;DHT22;61859;49.204;8.140;2023-01-08T08:39:50;8.10;99.90
73576;DHT22;61859;49.204;8.140;2023-01-08T08:42:15;8.10;99.90
73576;DHT22;61859;49.204;8.140;2023-01-08T08:44:41;8.20;99.90
73576;DHT22;61859;49.204;8.140;2023-01-08T08:47:07;8.00;99.90
73576;DHT22;61859;49.204;8.140;2023-01-08T08:49:33;8.10;99.90
73576;DHT22;61859;49.204;8.140;2023-01-08T08:52:01;8.10;99.90
73576;DHT22;61859;49.204;8.140;2023-01-08T08:54:26;8.10;99.90
73576;DHT22;61859;49.204;8.140;2023-01-08T08:56:52;8.10;99.90
73576;DHT22;61859;49.204;8.140;2023-01-08T08:59:17;8.10;99.90
73576;DHT22;61859;49.204;8.140;2023-01-08T09:01:43;8.10;99.90
73576;DHT22;61859;49.204;8.140;2023-01-08T09:04:08;8.30;99.90
73576;DHT22;61859;49.204;8.140;2023-01-08T09:06:34;8.20;99.90
73576;DHT22;61859;49.204;8.140;2023-01-08T09:08:59;8.20;99.90
73576;DHT22;61859;49.204;8.140;2023-01-08T09:11:25;8.20;99.90
73576;DHT22;61859;49.204;8.140;2023-01-08T09:13:50;8.30;99.90
73576;DHT22;61859;49.204;8.140;2023-01-08T09:16:16;8.30;99.90
73576;DHT22;61859;49.204;8.140;2023-01-08T09:18:41;8.30;99.90
73576;DHT22;61859;49.204;8.140;2023-01-08T09:21:07;8.20;99.90
73576;DHT22;61859;49.204;8.140;2023-01-08T09:23:36;8.30;99.90
73576;DHT22;61859;49.204;8.140;2023-01-08T09:26:04;8.30;99.90
73576;DHT22;61859;49.204;8.140;2023-01-08T09:28:30;8.40;99.90
73576;DHT22;61859;49.204;8.140;2023-01-08T09:30:59;8.50;99.90
73576;DHT22;61859;49.204;8.140;2023-01-08T09:33:24;8.30;99.90
73576;DHT22;61859;49.204;8.140;2023-01-08T09:35:50;8.50;99.90
73576;DHT22;61859;49.204;8.140;2023-01-08T09:38:15;8.50;99.90
73576;DHT22;61859;49.204;8.140;2023-01-08T09:40:46;8.50;99.90
73576;DHT22;61859;49.204;8.140;2023-01-08T09:43:20;8.50;99.90
73576;DHT22;61859;49.204;8.140;2023-01-08T09:45:53;8.50;99.90
73576;DHT22;61859;49.204;8.140;2023-01-08T09:48:22;8.60;99.90
73576;DHT22;61859;49.204;8.140;2023-01-08T09:50:49;8.60;99.90
73576;DHT22;61859;49.204;8.140;2023-01-08T09:53:16;8.50;99.90
73576;DHT22;61859;49.204;8.140;2023-01-08T09:55:43;8.60;99.90
73576;DHT22;61859;49.204;8.140;2023-01-08T09:58:39;8.60;99.90
73576;DHT22;61859;49.204;8.140;2023-01-08T10:01:06;8.70;99.90
73576;DHT22;61859;49.204;8.140;2023-01-08T10:03:55;8.60;99.90
73576;DHT22;61859;49.204;8.140;2023-01-08T10:06:22;8.70;99.90
73576;DHT22;61859;49.204;8.140;2023-01-08T10:08:50;8.60;99.90
73576;DHT22;61859;49.204;8.140;2023-01-08T10:11:17;8.70;99.90
73576;DHT22;61859;49.204;8.140;2023-01-08T10:13:50;8.80;99.90
73576;DHT22;61859;49.204;8.140;2023-01-08T10:18:50;8.70;99.90
73576;DHT22;61859;49.204;8.140;2023-01-08T10:21:16;8.80;99.90
73576;DHT22;61859;49.204;8.140;2023-01-08T10:23:52;8.80;99.90
73576;DHT22;61859;49.204;8.140;2023-01-08T10:26:35;9.00;99.90
73576;DHT22;61859;49.204;8.140;2023-01-08T10:29:16;9.10;99.90
73576;DHT22;61859;49.204;8.140;2023-01-08T10:34:25;9.40;99.90
73576;DHT22;61859;49.204;8.140;2023-01-08T10:36:51;9.40;99.90
73576;DHT22;61859;49.204;8.140;2023-01-08T10:39:25;9.60;99.90
73576;DHT22;61859;49.204;8.140;2023-01-08T10:41:55;9.60;99.90
73576;DHT22;61859;49.204;8.140;2023-01-08T10:44:23;9.60;99.90
73576;DHT22;61859;49.204;8.140;2023-01-08T10:46:52;9.70;99.90
73576;DHT22;61859;49.204;8.140;2023-01-08T10:49:30;9.70;99.90
73576;DHT22;61859;49.204;8.140;2023-01-08T10:51:58;9.70;99.90
73576;DHT22;61859;49.204;8.140;2023-01-08T10:54:37;9.80;99.90
73576;DHT22;61859;49.204;8.140;2023-01-08T10:57:42;10.00;99.90
73576;DHT22;61859;49.204;8.140;2023-01-08T11:00:25;10.40;98.70
73576;DHT22;61859;49.204;8.140;2023-01-08T11:02:51;10.50;97.60
73576;DHT22;61859;49.204;8.140;2023-01-08T11:05:17;10.30;98.10
73576;DHT22;61859;49.204;8.140;2023-01-08T11:07:48;10.30;98.70
73576;DHT22;61859;49.204;8.140;2023-01-08T11:10:24;10.30;97.90
73576;DHT22;61859;49.204;8.140;2023-01-08T11:13:04;10.40;98.80
73576;DHT22;61859;49.204;8.140;2023-01-08T11:15:37;10.50;98.20
73576;DHT22;61859;49.204;8.140;2023-01-08T11:18:18;11.90;94.80
73576;DHT22;61859;49.204;8.140;2023-01-08T11:20:44;13.50;88.80
73576;DHT22;61859;49.204;8.140;2023-01-08T11:23:18;14.60;83.80
73576;DHT22;61859;49.204;8.140;2023-01-08T11:25:53;15.10;80.30
73576;DHT22;61859;49.204;8.140;2023-01-08T11:33:59;14.70;78.30
73576;DHT22;61859;49.204;8.140;2023-01-08T11:36:33;14.50;81.60
73576;DHT22;61859;49.204;8.140;2023-01-08T11:39:01;14.10;82.70
73576;DHT22;61859;49.204;8.140;2023-01-08T11:41:40;14.40;82.90
73576;DHT22;61859;49.204;8.140;2023-01-08T11:44:27;13.90;82.90
73576;DHT22;61859;49.204;8.140;2023-01-08T11:50:17;12.50;87.70
73576;DHT22;61859;49.204;8.140;2023-01-08T12:07:02;11.70;91.90
73576;DHT22;61859;49.204;8.140;2023-01-08T12:09:45;11.50;91.90
73576;DHT22;61859;49.204;8.140;2023-01-08T12:12:26;11.50;92.30
73576;DHT22;61859;49.204;8.140;2023-01-08T12:34:14;11.30;93.40
73576;DHT22;61859;49.204;8.140;2023-01-08T12:36:52;11.60;91.70
73576;DHT22;61859;49.204;8.140;2023-01-08T12:39:23;11.70;91.40
73576;DHT22;61859;49.204;8.140;2023-01-08T12:41:55;11.60;91.20
73576;DHT22;61859;49.204;8.140;2023-01-08T12:44:27;11.80;91.40
73576;DHT22;61859;49.204;8.140;2023-01-08T12:46:56;11.50;91.80
73576;DHT22;61859;49.204;8.140;2023-01-08T12:49:34;11.40;91.60
73576;DHT22;61859;49.204;8.140;2023-01-08T12:52:20;11.50;91.70
73576;DHT22;61859;49.204;8.140;2023-01-08T12:55:29;11.30;91.90
73576;DHT22;61859;49.204;8.140;2023-01-08T12:57:52;11.30;92.80
73576;DHT22;61859;49.204;8.140;2023-01-08T13:00:33;11.70;91.90
73576;DHT22;61859;49.204;8.140;2023-01-08T13:03:04;12.50;89.90
73576;DHT22;61859;49.204;8.140;2023-01-08T13:05:31;12.90;86.40
73576;DHT22;61859;49.204;8.140;2023-01-08T13:10:49;12.00;89.00
73576;DHT22;61859;49.204;8.140;2023-01-08T13:13:30;11.40;91.30
73576;DHT22;61859;49.204;8.140;2023-01-08T13:16:07;11.20;92.20
73576;DHT22;61859;49.204;8.140;2023-01-08T13:18:33;11.30;92.60
73576;DHT22;61859;49.204;8.140;2023-01-08T13:21:01;11.20;92.50
73576;DHT22;61859;49.204;8.140;2023-01-08T13:23:30;11.20;92.70
73576;DHT22;61859;49.204;8.140;2023-01-08T13:25:58;11.00;93.20
73576;DHT22;61859;49.204;8.140;2023-01-08T13:30:51;11.20;94.20
73576;DHT22;61859;49.204;8.140;2023-01-08T13:36:29;12.30;89.90
73576;DHT22;61859;49.204;8.140;2023-01-08T13:44:35;11.30;91.90
73576;DHT22;61859;49.204;8.140;2023-01-08T13:47:26;11.00;92.80
73576;DHT22;61859;49.204;8.140;2023-01-08T13:49:54;10.90;93.00
73576;DHT22;61859;49.204;8.140;2023-01-08T13:55:00;11.10;93.10
73576;DHT22;61859;49.204;8.140;2023-01-08T13:57:39;11.80;91.30
73576;DHT22;61859;49.204;8.140;2023-01-08T14:00:13;12.00;89.90
73576;DHT22;61859;49.204;8.140;2023-01-08T14:02:43;11.70;90.60
73576;DHT22;61859;49.204;8.140;2023-01-08T14:05:26;11.60;91.40
73576;DHT22;61859;49.204;8.140;2023-01-08T14:07:52;12.10;90.30
73576;DHT22;61859;49.204;8.140;2023-01-08T14:10:18;12.60;88.90
73576;DHT22;61859;49.204;8.140;2023-01-08T14:12:44;12.60;88.40
73576;DHT22;61859;49.204;8.140;2023-01-08T14:15:21;12.50;89.00
73576;DHT22;61859;49.204;8.140;2023-01-08T14:17:47;12.10;89.50
73576;DHT22;61859;49.204;8.140;2023-01-08T14:20:24;11.70;90.90
73576;DHT22;61859;49.204;8.140;2023-01-08T14:22:52;11.30;91.60
73576;DHT22;61859;49.204;8.140;2023-01-08T14:25:18;11.10;92.60
73576;DHT22;61859;49.204;8.140;2023-01-08T14:27:57;11.00;93.00
73576;DHT22;61859;49.204;8.140;2023-01-08T14:30:24;10.80;93.70
73576;DHT22;61859;49.204;8.140;2023-01-08T14:32:50;10.60;94.40
73576;DHT22;61859;49.204;8.140;2023-01-08T14:35:17;10.60;94.80
73576;DHT22;61859;49.204;8.140;2023-01-08T14:37:45;10.60;94.60
73576;DHT22;61859;49.204;8.140;2023-01-08T14:40:15;10.60;95.00
73576;DHT22;61859;49.204;8.140;2023-01-08T14:42:42;10.60;94.80
73576;DHT22;61859;49.204;8.140;2023-01-08T14:45:17;10.70;94.60
73576;DHT22;61859;49.204;8.140;2023-01-08T14:47:53;10.60;94.20
73576;DHT22;61859;49.204;8.140;2023-01-08T14:50:28;10.70;93.80
73576;DHT22;61859;49.204;8.140;2023-01-08T14:53:05;10.60;94.20
73576;DHT22;61859;49.204;8.140;2023-01-08T14:55:32;10.60;94.30
73576;DHT22;61859;49.204;8.140;2023-01-08T14:58:00;10.40;94.50
73576;DHT22;61859;49.204;8.140;2023-01-08T15:00:28;10.30;94.90
73576;DHT22;61859;49.204;8.140;2023-01-08T15:02:55;10.10;95.50
73576;DHT22;61859;49.204;8.140;2023-01-08T15:05:28;10.10;96.00
73576;DHT22;61859;49.204;8.140;2023-01-08T15:10:55;9.90;96.80
73576;DHT22;61859;49.204;8.140;2023-01-08T15:13:23;9.90;97.30
73576;DHT22;61859;49.204;8.140;2023-01-08T15:15:57;9.80;97.70
73576;DHT22;61859;49.204;8.140;2023-01-08T15:18:24;9.90;97.90
73576;DHT22;61859;49.204;8.140;2023-01-08T15:20:50;9.80;97.90
73576;DHT22;61859;49.204;8.140;2023-01-08T15:23:24;9.70;98.00
73576;DHT22;61859;49.204;8.140;2023-01-08T15:25:51;9.70;98.20
73576;DHT22;61859;49.204;8.140;2023-01-08T15:28:18;9.70;98.40
73576;DHT22;61859;49.204;8.140;2023-01-08T15:30:46;9.60;98.60
73576;DHT22;61859;49.204;8.140;2023-01-08T15:33:21;9.50;98.90
73576;DHT22;61859;49.204;8.140;2023-01-08T15:35:47;9.40;99.10
73576;DHT22;61859;49.204;8.140;2023-01-08T15:38:13;9.40;99.40
73576;DHT22;61859;49.204;8.140;2023-01-08T15:40:39;9.30;99.70
73576;DHT22;61859;49.204;8.140;2023-01-08T15:43:07;9.30;99.90
73576;DHT22;61859;49.204;8.140;2023-01-08T15:45:39;9.10;99.90
73576;DHT22;61859;49.204;8.140;2023-01-08T15:48:05;9.10;99.90
73576;DHT22;61859;49.204;8.140;2023-01-08T15:50:31;9.00;99.90
73576;DHT22;61859;49.204;8.140;2023-01-08T15:53:02;8.90;99.90
73576;DHT22;61859;49.204;8.140;2023-01-08T15:55:27;8.90;99.90
73576;DHT22;61859;49.204;8.140;2023-01-08T15:57:53;8.80;99.90
73576;DHT22;61859;49.204;8.140;2023-01-08T16:00:21;8.80;99.90
73576;DHT22;61859;49.204;8.140;2023-01-08T16:02:49;8.70;99.90
73576;DHT22;61859;49.204;8.140;2023-01-08T16:05:16;8.60;99.90
73576;DHT22;61859;49.204;8.140;2023-01-08T16:07:42;8.60;99.90
73576;DHT22;61859;49.204;8.140;2023-01-08T16:10:10;8.50;99.90
73576;DHT22;61859;49.204;8.140;2023-01-08T16:12:36;8.40;99.90
73576;DHT22;61859;49.204;8.140;2023-01-08T16:15:02;8.20;99.90
73576;DHT22;61859;49.204;8.140;2023-01-08T16:17:28;8.30;99.90
73576;DHT22;61859;49.204;8.140;2023-01-08T16:19:54;8.10;99.90
73576;DHT22;61859;49.204;8.140;2023-01-08T16:22:20;8.10;99.90
73576;DHT22;61859;49.204;8.140;2023-01-08T16:24:45;8.00;99.90
73576;DHT22;61859;49.204;8.140;2023-01-08T16:27:11;7.90;99.90
73576;DHT22;61859;49.204;8.140;2023-01-08T16:29:36;7.80;99.90
73576;DHT22;61859;49.204;8.140;2023-01-08T16:32:02;7.70;99.90
73576;DHT22;61859;49.204;8.140;2023-01-08T16:34:28;7.70;99.90
73576;DHT22;61859;49.204;8.140;2023-01-08T16:36:53;7.60;99.90
73576;DHT22;61859;49.204;8.140;2023-01-08T16:39:19;7.40;99.90
73576;DHT22;61859;49.204;8.140;2023-01-08T16:41:46;7.30;99.90
73576;DHT22;61859;49.204;8.140;2023-01-08T16:44:20;7.30;99.90
73576;DHT22;61859;49.204;8.140;2023-01-08T16:46:46;6.90;99.90
73576;DHT22;61859;49.204;8.140;2023-01-08T16:49:12;7.00;99.90
73576;DHT22;61859;49.204;8.140;2023-01-08T16:51:37;6.90;99.90
73576;DHT22;61859;49.204;8.140;2023-01-08T16:54:03;6.90;99.90
73576;DHT22;61859;49.204;8.140;2023-01-08T16:56:29;6.80;99.90
73576;DHT22;61859;49.204;8.140;2023-01-08T16:58:54;6.60;99.90
73576;DHT22;61859;49.204;8.140;2023-01-08T17:01:20;6.60;99.90
73576;DHT22;61859;49.204;8.140;2023-01-08T17:03:45;6.60;99.90
73576;DHT22;61859;49.204;8.140;2023-01-08T17:06:12;6.40;99.90
73576;DHT22;61859;49.204;8.140;2023-01-08T17:08:39;6.40;99.90